Time;durP1;ratioP1;P1;durP2;ratioP2;P2;SDS_P1;SDS_P2;PMS_P1;PMS_P2;Temp;Humidity;BMP_temperature;BMP_pressure;BME280_temperature;BME280_humidity;BME280_pressure;Samples;Min_cycle;Max_cycle;Signal;HPM_P1;HPM_P2
2023/10/03 00:01:21;;;;;;;;;;;;;;;;;;5052950;28;19925;-63
2023/10/03 00:03:49;;;;;;;;;;;;;;;;;;5052784;28;19935;-63
2023/10/03 00:06:15;;;;;;;;;;;;;;;;;;5053972;28;20321;-63
2023/10/03 00:08:45;;;;;;;;;;;;;;;;;;5054123;28;19920;-64
2023/10/03 00:11:12;;;;;;;;;;;;;;;;;;5053741;28;19925;-64
2023/10/03 00:13:38;;;;;;;;;;;;;;;;;;5053731;28;19931;-63
2023/10/03 00:16:04;;;;;;;;;;;;;;;;;;5053685;28;20016;-63
2023/10/03 00:18:30;;;;;;;;;;;;;;;;;;5054105;28;20020;-63
2023/10/03 00:20:56;;;;;;;;;;;;;;;;;;5053851;28;20012;-64
2023/10/03 00:23:22;;;;;;;;;;;;;;;;;;5053676;28;19975;-63
2023/10/03 00:25:48;;;;;;;;;;;;;;;;;;5053163;28;20019;-63
2023/10/03 00:28:14;;;;;;;;;;;;;;;;;;5052116;28;19920;-63
2023/10/03 00:30:40;;;;;;;;;;;;;;;;;;5053579;28;19920;-63
2023/10/03 00:33:10;;;;;;;;;;;;;;;;;;5053804;28;19970;-63
2023/10/03 00:35:36;;;;;;;;;;;;;;;;;;5053804;28;19975;-63
2023/10/03 00:38:07;;;;;;;;;;;;;;;;;;5053885;28;20313;-63
2023/10/03 00:40:32;;;;;;;;;;;;;;;;;;5053425;28;20315;-64
2023/10/03 00:42:59;;;;;;;;;;;;;;;;;;5053419;28;19921;-64
2023/10/03 00:45:26;;;;;;;;;;;;;;;;;;5053458;28;19921;-64
2023/10/03 00:47:55;;;;;;;;;;;;;;;;;;5053212;28;20012;-64
2023/10/03 00:50:23;;;;;;;;;;;;;;;;;;5053189;28;19928;-64
2023/10/03 00:52:55;;;;;;;;;;;;;;;;;;5053309;28;19921;-64
2023/10/03 00:55:21;;;;;;;;;;;;;;;;;;5051647;28;19932;-64
2023/10/03 00:57:47;;;;;;;;;;;;;;;;;;5053187;28;19928;-64
2023/10/03 01:00:16;;;;;;;;;;;;;;;;;;5053209;28;20263;-64
2023/10/03 01:02:42;;;;;;;;;;;;;;;;;;5053048;28;20366;-64
2023/10/03 01:05:14;;;;;;;;;;;;;;;;;;5053071;28;19929;-64
2023/10/03 01:07:40;;;;;;;;;;;;;;;;;;5052903;28;19925;-64
2023/10/03 01:10:07;;;;;;;;;;;;;;;;;;5051325;28;19969;-63
2023/10/03 01:12:35;;;;;;;;;;;;;;;;;;5051475;28;19987;-63
2023/10/03 01:15:05;;;;;;;;;;;;;;;;;;5052758;28;19931;-63
2023/10/03 01:17:33;;;;;;;;;;;;;;;;;;5052555;28;20297;-63
2023/10/03 01:20:00;;;;;;;;;;;;;;;;;;5052817;28;19952;-63
2023/10/03 01:22:26;;;;;;;;;;;;;;;;;;5052786;28;19925;-63
2023/10/03 01:24:52;;;;;;;;;;;;;;;;;;5052787;28;20004;-63
2023/10/03 01:27:19;;;;;;;;;;;;;;;;;;5052689;28;19974;-63
2023/10/03 01:29:45;;;;;;;;;;;;;;;;;;5052473;28;20351;-64
2023/10/03 01:32:11;;;;;;;;;;;;;;;;;;5052554;28;19925;-63
2023/10/03 01:34:37;;;;;;;;;;;;;;;;;;5052611;28;20051;-64
2023/10/03 01:37:03;;;;;;;;;;;;;;;;;;5052346;28;19920;-64
2023/10/03 01:39:30;;;;;;;;;;;;;;;;;;5050930;28;20432;-63
2023/10/03 01:41:56;;;;;;;;;;;;;;;;;;5052586;28;19920;-63
2023/10/03 01:44:23;;;;;;;;;;;;;;;;;;5052400;28;20390;-63
2023/10/03 01:46:50;;;;;;;;;;;;;;;;;;5051117;28;20333;-64
2023/10/03 01:49:16;;;;;;;;;;;;;;;;;;5052323;28;20023;-63
2023/10/03 01:51:43;;;;;;;;;;;;;;;;;;5050995;28;19921;-63
2023/10/03 01:54:09;;;;;;;;;;;;;;;;;;5052324;28;19925;-64
2023/10/03 01:56:35;;;;;;;;;;;;;;;;;;5052101;28;19925;-64
2023/10/03 01:59:01;;;;;;;;;;;;;;;;;;5052180;28;20512;-64
2023/10/03 02:01:28;;;;;;;;;;;;;;;;;;5067902;28;19921;-64
2023/10/03 02:03:55;;;;;;;;;;;;;;;;;;5052507;28;19921;-64
2023/10/03 02:06:21;;;;;;;;;;;;;;;;;;5050802;28;19924;-64
2023/10/03 02:08:47;;;;;;;;;;;;;;;;;;5052243;28;19927;-64
2023/10/03 02:11:13;;;;;;;;;;;;;;;;;;5051979;28;20378;-64
2023/10/03 02:13:40;;;;;;;;;;;;;;;;;;5052389;28;19920;-64
2023/10/03 02:16:10;;;;;;;;;;;;;;;;;;5052280;28;20016;-64
2023/10/03 02:18:36;;;;;;;;;;;;;;;;;;5051910;28;20518;-64
2023/10/03 02:21:02;;;;;;;;;;;;;;;;;;5052068;28;19921;-64
2023/10/03 02:23:28;;;;;;;;;;;;;;;;;;5052159;28;20345;-63
2023/10/03 02:25:53;;;;;;;;;;;;;;;;;;5067562;28;19927;-63
2023/10/03 02:28:20;;;;;;;;;;;;;;;;;;5050522;28;20282;-64
2023/10/03 02:30:47;;;;;;;;;;;;;;;;;;5051975;28;19948;-64
2023/10/03 02:33:14;;;;;;;;;;;;;;;;;;5051886;28;20462;-62
2023/10/03 02:35:42;;;;;;;;;;;;;;;;;;5050581;28;20329;-63
2023/10/03 02:38:14;;;;;;;;;;;;;;;;;;5051743;28;20007;-64
2023/10/03 02:40:40;;;;;;;;;;;;;;;;;;5051730;28;19944;-64
2023/10/03 02:43:06;;;;;;;;;;;;;;;;;;5050747;28;19932;-64
2023/10/03 02:45:32;;;;;;;;;;;;;;;;;;5042024;28;19929;-64
2023/10/03 02:48:03;;;;;;;;;;;;;;;;;;5030779;28;19929;-67
2023/10/03 02:50:33;;;;;;;;;;;;;;;;;;5034843;28;19921;-67
2023/10/03 02:53:00;;;;;;;;;;;;;;;;;;5046190;28;19921;-64
2023/10/03 02:55:25;;;;;;;;;;;;;;;;;;5054877;28;20007;-64
2023/10/03 02:57:51;;;;;;;;;;;;;;;;;;5055377;28;20043;-64
2023/10/03 03:00:19;;;;;;;;;;;;;;;;;;5053760;28;19924;-64
2023/10/03 03:02:47;;;;;;;;;;;;;;;;;;5054960;28;19925;-64
2023/10/03 03:05:16;;;;;;;;;;;;;;;;;;5055210;28;19970;-64
2023/10/03 03:07:42;;;;;;;;;;;;;;;;;;5055398;28;19925;-64
2023/10/03 03:10:12;;;;;;;;;;;;;;;;;;5054960;28;19952;-64
2023/10/03 03:12:38;;;;;;;;;;;;;;;;;;5055328;28;19974;-64
2023/10/03 03:15:06;;;;;;;;;;;;;;;;;;5055082;28;19932;-64
2023/10/03 03:17:32;;;;;;;;;;;;;;;;;;5055032;28;20009;-64
2023/10/03 03:19:58;;;;;;;;;;;;;;;;;;5053178;28;20394;-64
2023/10/03 03:22:25;;;;;;;;;;;;;;;;;;5053174;28;19925;-64
2023/10/03 03:24:53;;;;;;;;;;;;;;;;;;5053350;28;19967;-63
2023/10/03 03:27:19;;;;;;;;;;;;;;;;;;5054969;28;20008;-63
2023/10/03 03:30:22;;;;;;;;;;;;;;;;;;5054702;28;20353;-64
2023/10/03 03:32:34;;;;;;;;;;;;;;;;;;5054429;28;19923;-64
2023/10/03 03:35:01;;;;;;;;;;;;;;;;;;5054609;28;20633;-64
2023/10/03 03:37:37;;;;;;;;;;;;;;;;;;5054505;28;20015;-64
2023/10/03 03:40:11;;;;;;;;;;;;;;;;;;5054381;28;19925;-64
2023/10/03 03:42:37;;;;;;;;;;;;;;;;;;5054485;28;19929;-64
2023/10/03 03:45:04;;;;;;;;;;;;;;;;;;5054419;28;20062;-64
2023/10/03 03:47:33;;;;;;;;;;;;;;;;;;5054329;28;20374;-64
2023/10/03 03:50:01;;;;;;;;;;;;;;;;;;5054522;28;19970;-64
2023/10/03 03:52:29;;;;;;;;;;;;;;;;;;5054160;28;19928;-64
2023/10/03 03:54:56;;;;;;;;;;;;;;;;;;5069751;28;19924;-64
2023/10/03 03:57:21;;;;;;;;;;;;;;;;;;5054072;28;20355;-64
2023/10/03 03:59:47;;;;;;;;;;;;;;;;;;5053530;28;19940;-64
2023/10/03 04:02:14;;;;;;;;;;;;;;;;;;5052390;28;19925;-64
2023/10/03 04:04:40;;;;;;;;;;;;;;;;;;5053661;28;19971;-64
2023/10/03 04:07:06;;;;;;;;;;;;;;;;;;5051850;28;19925;-65
2023/10/03 04:09:31;;;;;;;;;;;;;;;;;;5053879;28;20275;-65
2023/10/03 04:11:59;;;;;;;;;;;;;;;;;;5053105;28;20032;-65
2023/10/03 04:14:25;;;;;;;;;;;;;;;;;;5053038;28;19967;-65
2023/10/03 04:16:51;;;;;;;;;;;;;;;;;;5052867;28;19928;-64
2023/10/03 04:19:17;;;;;;;;;;;;;;;;;;5053151;28;20012;-64
2023/10/03 04:21:43;;;;;;;;;;;;;;;;;;5052837;28;19921;-65
2023/10/03 04:24:10;;;;;;;;;;;;;;;;;;5053174;28;19947;-65
2023/10/03 04:26:39;;;;;;;;;;;;;;;;;;5053119;28;20420;-65
2023/10/03 04:29:06;;;;;;;;;;;;;;;;;;5053023;28;19960;-65
2023/10/03 04:31:32;;;;;;;;;;;;;;;;;;5053408;28;19929;-64
2023/10/03 04:33:58;;;;;;;;;;;;;;;;;;5053487;28;19970;-64
2023/10/03 04:36:25;;;;;;;;;;;;;;;;;;5053095;28;19928;-65
2023/10/03 04:38:51;;;;;;;;;;;;;;;;;;5052025;28;20240;-64
2023/10/03 04:41:17;;;;;;;;;;;;;;;;;;5053199;28;19931;-64
2023/10/03 04:43:43;;;;;;;;;;;;;;;;;;5053302;28;20313;-64
2023/10/03 04:46:10;;;;;;;;;;;;;;;;;;5053135;28;19943;-64
2023/10/03 04:48:37;;;;;;;;;;;;;;;;;;5053415;28;20003;-64
2023/10/03 04:51:04;;;;;;;;;;;;;;;;;;5053231;28;19927;-64
2023/10/03 04:53:30;;;;;;;;;;;;;;;;;;5051760;28;20032;-64
2023/10/03 04:55:56;;;;;;;;;;;;;;;;;;5068194;28;20058;-64
2023/10/03 04:58:22;;;;;;;;;;;;;;;;;;5053141;28;19921;-64
2023/10/03 05:00:48;;;;;;;;;;;;;;;;;;5052949;28;19925;-64
2023/10/03 05:03:14;;;;;;;;;;;;;;;;;;5053123;28;19971;-64
2023/10/03 05:05:40;;;;;;;;;;;;;;;;;;5068365;28;20310;-64
2023/10/03 05:08:06;;;;;;;;;;;;;;;;;;5053028;28;19921;-64
2023/10/03 05:10:33;;;;;;;;;;;;;;;;;;5052868;28;19927;-64
2023/10/03 05:12:59;;;;;;;;;;;;;;;;;;5052805;28;19978;-65
2023/10/03 05:15:26;;;;;;;;;;;;;;;;;;5052835;28;19970;-65
2023/10/03 05:17:52;;;;;;;;;;;;;;;;;;5053059;28;19921;-64
2023/10/03 05:20:18;;;;;;;;;;;;;;;;;;5052835;28;20359;-64
2023/10/03 05:22:46;;;;;;;;;;;;;;;;;;5052624;28;19966;-65
2023/10/03 05:25:13;;;;;;;;;;;;;;;;;;5052942;28;19921;-64
2023/10/03 05:27:39;;;;;;;;;;;;;;;;;;5068174;28;19956;-64
2023/10/03 05:30:05;;;;;;;;;;;;;;;;;;5052848;28;19920;-64
2023/10/03 05:32:31;;;;;;;;;;;;;;;;;;5052630;28;20381;-64
2023/10/03 05:34:58;;;;;;;;;;;;;;;;;;5052504;28;20039;-64
2023/10/03 05:37:24;;;;;;;;;;;;;;;;;;5052517;28;19928;-64
2023/10/03 05:39:50;;;;;;;;;;;;;;;;;;5052218;28;19924;-64
2023/10/03 05:42:17;;;;;;;;;;;;;;;;;;5052314;28;20378;-64
2023/10/03 05:44:44;;;;;;;;;;;;;;;;;;5050896;28;20494;-64
2023/10/03 05:47:09;;;;;;;;;;;;;;;;;;5052469;28;20007;-64
2023/10/03 05:49:36;;;;;;;;;;;;;;;;;;5052426;28;20013;-64
2023/10/03 05:52:02;;;;;;;;;;;;;;;;;;5051902;28;20441;-64
2023/10/03 05:54:30;;;;;;;;;;;;;;;;;;5049604;22;19984;-67
2023/10/03 05:56:56;;;;;;;;;;;;;;;;;;5019785;28;20017;-68
2023/10/03 05:59:23;;;;;;;;;;;;;;;;;;5012832;28;20259;-67
2023/10/03 06:01:49;;;;;;;;;;;;;;;;;;5012087;28;19925;-67
2023/10/03 06:04:15;;;;;;;;;;;;;;;;;;5011318;28;20366;-67
2023/10/03 06:06:41;;;;;;;;;;;;;;;;;;5012641;28;19929;-68
2023/10/03 06:09:10;;;;;;;;;;;;;;;;;;5012482;28;20370;-68
2023/10/03 06:11:36;;;;;;;;;;;;;;;;;;5013159;28;19976;-68
2023/10/03 06:14:03;;;;;;;;;;;;;;;;;;5010527;28;19921;-68
2023/10/03 06:16:29;;;;;;;;;;;;;;;;;;5016015;28;19925;-68
2023/10/03 06:18:56;;;;;;;;;;;;;;;;;;5031146;28;19925;-68
2023/10/03 06:21:23;;;;;;;;;;;;;;;;;;5031375;28;20374;-68
2023/10/03 06:23:49;;;;;;;;;;;;;;;;;;5031808;28;19928;-69
2023/10/03 06:26:19;;;;;;;;;;;;;;;;;;5035980;28;20366;-68
2023/10/03 06:28:45;;;;;;;;;;;;;;;;;;5024150;28;20075;-68
2023/10/03 06:31:12;;;;;;;;;;;;;;;;;;5031721;28;20426;-67
2023/10/03 06:33:38;;;;;;;;;;;;;;;;;;5014149;28;19925;-67
2023/10/03 06:36:06;;;;;;;;;;;;;;;;;;5013372;28;19929;-68
2023/10/03 06:38:32;;;;;;;;;;;;;;;;;;5014298;28;19926;-67
2023/10/03 06:40:58;;;;;;;;;;;;;;;;;;5015200;28;20394;-68
2023/10/03 06:43:24;;;;;;;;;;;;;;;;;;5015691;28;19921;-68
2023/10/03 06:45:50;;;;;;;;;;;;;;;;;;5015899;28;20012;-67
2023/10/03 06:48:16;;;;;;;;;;;;;;;;;;5015644;28;20004;-67
2023/10/03 06:50:42;;;;;;;;;;;;;;;;;;5031122;28;19922;-67
2023/10/03 06:53:09;;;;;;;;;;;;;;;;;;5029788;28;19925;-68
2023/10/03 06:55:35;;;;;;;;;;;;;;;;;;5035428;28;19933;-67
2023/10/03 06:58:01;;;;;;;;;;;;;;;;;;5034186;28;20016;-67
2023/10/03 07:00:28;;;;;;;;;;;;;;;;;;5017438;28;20004;-68
2023/10/03 07:02:55;;;;;;;;;;;;;;;;;;5022978;28;19922;-68
2023/10/03 07:05:21;;;;;;;;;;;;;;;;;;5014341;28;19960;-67
2023/10/03 07:07:47;;;;;;;;;;;;;;;;;;5015572;28;19929;-68
2023/10/03 07:10:13;;;;;;;;;;;;;;;;;;5015215;28;20374;-67
2023/10/03 07:12:39;;;;;;;;;;;;;;;;;;4997600;28;19922;-67
2023/10/03 07:15:08;;;;;;;;;;;;;;;;;;5013913;28;19926;-67
2023/10/03 07:17:35;;;;;;;;;;;;;;;;;;5015282;28;19926;-68
2023/10/03 07:20:01;;;;;;;;;;;;;;;;;;5015473;28;20012;-67
2023/10/03 07:22:27;;;;;;;;;;;;;;;;;;5015479;28;19921;-68
2023/10/03 07:24:53;;;;;;;;;;;;;;;;;;4997501;28;20425;-67
2023/10/03 07:27:19;;;;;;;;;;;;;;;;;;5014544;28;19921;-67
2023/10/03 07:29:46;;;;;;;;;;;;;;;;;;5015480;28;19971;-67
2023/10/03 07:32:13;;;;;;;;;;;;;;;;;;5014194;28;19930;-68
2023/10/03 07:34:45;;;;;;;;;;;;;;;;;;5013912;28;20012;-66
2023/10/03 07:37:11;;;;;;;;;;;;;;;;;;5015453;28;20330;-67
2023/10/03 07:39:40;;;;;;;;;;;;;;;;;;5015408;28;19921;-67
2023/10/03 07:42:06;;;;;;;;;;;;;;;;;;5015213;28;20417;-68
2023/10/03 07:44:32;;;;;;;;;;;;;;;;;;5015217;28;19925;-67
2023/10/03 07:46:58;;;;;;;;;;;;;;;;;;5015318;28;19928;-67
2023/10/03 07:49:24;;;;;;;;;;;;;;;;;;5015177;28;19921;-68
2023/10/03 07:51:50;;;;;;;;;;;;;;;;;;5014431;28;19953;-68
2023/10/03 07:54:19;;;;;;;;;;;;;;;;;;5014209;28;20632;-68
2023/10/03 07:56:45;;;;;;;;;;;;;;;;;;5014557;28;20342;-67
2023/10/03 07:59:11;;;;;;;;;;;;;;;;;;5012282;28;20031;-67
2023/10/03 08:01:38;;;;;;;;;;;;;;;;;;5013921;28;19971;-68
2023/10/03 08:04:08;;;;;;;;;;;;;;;;;;5013997;28;19925;-67
2023/10/03 08:06:34;;;;;;;;;;;;;;;;;;5012091;28;19933;-67
2023/10/03 08:09:00;;;;;;;;;;;;;;;;;;5013352;28;19922;-68
2023/10/03 08:11:28;;;;;;;;;;;;;;;;;;5014421;28;20461;-67
2023/10/03 08:13:54;;;;;;;;;;;;;;;;;;5012129;28;20008;-67
2023/10/03 08:16:22;;;;;;;;;;;;;;;;;;5016283;28;20020;-68
2023/10/03 08:18:48;;;;;;;;;;;;;;;;;;5032282;28;19929;-67
2023/10/03 08:21:13;;;;;;;;;;;;;;;;;;5032292;28;19925;-66
2023/10/03 08:23:39;;;;;;;;;;;;;;;;;;5034165;28;19924;-66
2023/10/03 08:26:05;;;;;;;;;;;;;;;;;;5032928;28;19987;-67
2023/10/03 08:28:31;;;;;;;;;;;;;;;;;;5032364;28;19931;-67
2023/10/03 08:31:05;;;;;;;;;;;;;;;;;;5031806;28;20394;-67
2023/10/03 08:33:36;;;;;;;;;;;;;;;;;;5031959;28;19929;-67
2023/10/03 08:36:01;;;;;;;;;;;;;;;;;;5031935;28;19925;-67
2023/10/03 08:38:27;;;;;;;;;;;;;;;;;;5033274;28;19932;-67
2023/10/03 08:40:54;;;;;;;;;;;;;;;;;;5031466;28;19921;-68
2023/10/03 08:43:26;;;;;;;;;;;;;;;;;;5032807;28;19921;-68
2023/10/03 08:45:52;;;;;;;;;;;;;;;;;;5032668;28;19925;-68
2023/10/03 08:48:18;;;;;;;;;;;;;;;;;;5032613;28;19975;-67
2023/10/03 08:50:46;;;;;;;;;;;;;;;;;;5033059;28;20011;-68
2023/10/03 08:53:27;;;;;;;;;;;;;;;;;;5032926;28;20339;-66
2023/10/03 08:55:58;;;;;;;;;;;;;;;;;;5033262;28;20012;-67
2023/10/03 08:58:25;;;;;;;;;;;;;;;;;;5031866;28;19921;-68
2023/10/03 09:00:51;;;;;;;;;;;;;;;;;;5033229;28;19932;-67
2023/10/03 09:03:17;;;;;;;;;;;;;;;;;;5033026;28;19925;-68
2023/10/03 09:05:43;;;;;;;;;;;;;;;;;;5031762;28;20007;-68
2023/10/03 09:08:09;;;;;;;;;;;;;;;;;;5015081;28;19929;-68
2023/10/03 09:10:42;;;;;;;;;;;;;;;;;;5032957;28;19921;-67
2023/10/03 09:13:08;;;;;;;;;;;;;;;;;;5033002;28;19925;-68
2023/10/03 09:15:42;;;;;;;;;;;;;;;;;;5032402;28;19960;-68
2023/10/03 09:18:10;;;;;;;;;;;;;;;;;;5032886;28;19925;-68
2023/10/03 09:20:36;;;;;;;;;;;;;;;;;;5032471;28;19925;-67
2023/10/03 09:23:05;;;;;;;;;;;;;;;;;;5031205;28;19928;-68
2023/10/03 09:25:31;;;;;;;;;;;;;;;;;;5032332;28;19925;-67
2023/10/03 09:27:59;;;;;;;;;;;;;;;;;;5031134;28;20409;-67
2023/10/03 09:30:25;;;;;;;;;;;;;;;;;;5032466;28;19921;-67
2023/10/03 09:32:50;;;;;;;;;;;;;;;;;;5032235;28;19929;-68
2023/10/03 09:35:16;;;;;;;;;;;;;;;;;;5032193;28;20289;-68
2023/10/03 09:37:48;;;;;;;;;;;;;;;;;;5032423;28;20370;-67
2023/10/03 09:40:18;;;;;;;;;;;;;;;;;;5031767;28;20318;-67
2023/10/03 09:42:49;;;;;;;;;;;;;;;;;;5013858;28;19932;-67
2023/10/03 09:45:17;;;;;;;;;;;;;;;;;;5030152;28;19927;-68
2023/10/03 09:47:43;;;;;;;;;;;;;;;;;;5031810;28;19948;-68
2023/10/03 09:50:09;;;;;;;;;;;;;;;;;;5031439;28;19921;-67
2023/10/03 09:52:35;;;;;;;;;;;;;;;;;;5031263;28;19929;-67
2023/10/03 09:55:17;;;;;;;;;;;;;;;;;;5030955;28;20392;-67
2023/10/03 09:57:42;;;;;;;;;;;;;;;;;;5031220;28;19921;-68
2023/10/03 10:00:23;;;;;;;;;;;;;;;;;;5034713;28;19925;-68
2023/10/03 10:02:49;;;;;;;;;;;;;;;;;;5035248;28;19921;-68
2023/10/03 10:05:19;;;;;;;;;;;;;;;;;;5035283;28;20329;-67
2023/10/03 10:07:49;;;;;;;;;;;;;;;;;;5035006;28;20274;-67
2023/10/03 10:10:19;;;;;;;;;;;;;;;;;;5034040;28;19925;-68
2023/10/03 10:12:45;;;;;;;;;;;;;;;;;;5034353;28;19952;-68
2023/10/03 10:17:37;;;;;;;;;;;;;;;;;;5034533;28;19928;-68
2023/10/03 10:20:03;;;;;;;;;;;;;;;;;;5035530;28;20306;-68
2023/10/03 10:22:29;;;;;;;;;;;;;;;;;;5035851;28;19939;-68
2023/10/03 10:24:55;;;;;;;;;;;;;;;;;;5034357;28;20634;-68
2023/10/03 10:27:21;;;;;;;;;;;;;;;;;;5028174;28;20008;-67
2023/10/03 10:29:47;;;;;;;;;;;;;;;;;;5015728;28;19928;-69
2023/10/03 10:32:13;;;;;;;;;;;;;;;;;;4997523;28;19925;-68
2023/10/03 10:34:46;;;;;;;;;;;;;;;;;;5014638;28;19987;-68
2023/10/03 10:37:17;;;;;;;;;;;;;;;;;;5015367;28;19925;-68
2023/10/03 10:39:43;;;;;;;;;;;;;;;;;;5014120;28;19928;-68
2023/10/03 10:42:11;;;;;;;;;;;;;;;;;;5014788;28;20024;-68
2023/10/03 10:44:39;;;;;;;;;;;;;;;;;;5014053;28;20371;-69
2023/10/03 10:47:07;;;;;;;;;;;;;;;;;;5013565;28;21295;-68
2023/10/03 10:49:40;;;;;;;;;;;;;;;;;;5014258;28;20610;-67
2023/10/03 10:52:13;;;;;;;;;;;;;;;;;;5019544;28;20281;-67
2023/10/03 10:54:39;;;;;;;;;;;;;;;;;;5035106;28;19947;-67
2023/10/03 10:57:05;;;;;;;;;;;;;;;;;;5035313;28;19925;-68
2023/10/03 10:59:31;;;;;;;;;;;;;;;;;;5017279;28;19932;-68
2023/10/03 11:01:57;;;;;;;;;;;;;;;;;;5033850;28;19925;-67
2023/10/03 11:04:23;;;;;;;;;;;;;;;;;;5034949;28;19921;-68
2023/10/03 11:06:52;;;;;;;;;;;;;;;;;;5034985;28;20306;-68
2023/10/03 11:09:20;;;;;;;;;;;;;;;;;;5034450;28;19972;-68
2023/10/03 11:11:46;;;;;;;;;;;;;;;;;;5033443;28;19921;-68
2023/10/03 11:14:12;;;;;;;;;;;;;;;;;;5033425;28;19928;-67
2023/10/03 11:16:38;;;;;;;;;;;;;;;;;;5033309;28;19929;-68
2023/10/03 11:19:06;;;;;;;;;;;;;;;;;;5034855;28;19925;-68
2023/10/03 11:21:33;;;;;;;;;;;;;;;;;;5034456;28;20363;-68
2023/10/03 11:23:59;;;;;;;;;;;;;;;;;;5034759;28;19925;-68
2023/10/03 11:26:25;;;;;;;;;;;;;;;;;;5033001;28;19943;-69
2023/10/03 11:28:52;;;;;;;;;;;;;;;;;;5034259;28;19925;-68
2023/10/03 11:31:18;;;;;;;;;;;;;;;;;;5034715;28;19925;-68
2023/10/03 11:33:44;;;;;;;;;;;;;;;;;;5032865;28;19928;-68
2023/10/03 11:36:10;;;;;;;;;;;;;;;;;;5016432;28;19944;-68
2023/10/03 11:38:36;;;;;;;;;;;;;;;;;;5033246;28;19940;-68
2023/10/03 11:41:02;;;;;;;;;;;;;;;;;;5034486;28;19921;-68
2023/10/03 11:43:28;;;;;;;;;;;;;;;;;;5032966;28;19921;-67
2023/10/03 11:45:54;;;;;;;;;;;;;;;;;;5034610;28;19925;-67
2023/10/03 11:48:22;;;;;;;;;;;;;;;;;;5034073;28;20374;-67
2023/10/03 11:50:48;;;;;;;;;;;;;;;;;;5034318;28;19957;-67
2023/10/03 11:53:14;;;;;;;;;;;;;;;;;;5033133;28;20393;-66
2023/10/03 11:55:40;;;;;;;;;;;;;;;;;;5034268;28;19956;-67
2023/10/03 11:58:06;;;;;;;;;;;;;;;;;;5033943;28;20275;-68
2023/10/03 12:00:32;;;;;;;;;;;;;;;;;;5034130;28;19964;-67
2023/10/03 12:02:59;;;;;;;;;;;;;;;;;;5032545;28;20407;-67
2023/10/03 12:05:26;;;;;;;;;;;;;;;;;;5033661;28;20420;-68
2023/10/03 12:07:53;;;;;;;;;;;;;;;;;;5032487;28;19928;-68
2023/10/03 12:10:19;;;;;;;;;;;;;;;;;;5032301;28;19927;-68
2023/10/03 12:12:45;;;;;;;;;;;;;;;;;;5033816;28;20411;-67
2023/10/03 12:15:14;;;;;;;;;;;;;;;;;;5033381;28;19933;-67
2023/10/03 12:17:40;;;;;;;;;;;;;;;;;;5033681;28;19921;-68
2023/10/03 12:20:06;;;;;;;;;;;;;;;;;;5031929;28;20015;-67
2023/10/03 12:22:32;;;;;;;;;;;;;;;;;;5032419;28;20008;-68
2023/10/03 12:24:58;;;;;;;;;;;;;;;;;;5033278;28;19974;-68
2023/10/03 12:27:26;;;;;;;;;;;;;;;;;;5033423;28;19922;-67
2023/10/03 12:29:52;;;;;;;;;;;;;;;;;;5031792;28;19928;-68
2023/10/03 12:32:18;;;;;;;;;;;;;;;;;;5032482;28;19921;-67
2023/10/03 12:34:44;;;;;;;;;;;;;;;;;;5032102;28;19929;-67
2023/10/03 12:37:11;;;;;;;;;;;;;;;;;;5031116;28;19921;-67
2023/10/03 12:39:37;;;;;;;;;;;;;;;;;;5031808;28;19928;-68
2023/10/03 12:42:04;;;;;;;;;;;;;;;;;;5032451;28;20382;-68
2023/10/03 12:44:31;;;;;;;;;;;;;;;;;;5032690;28;19921;-67
2023/10/03 12:46:58;;;;;;;;;;;;;;;;;;5032166;28;20282;-68
2023/10/03 12:49:24;;;;;;;;;;;;;;;;;;5032025;28;19921;-68
2023/10/03 12:51:50;;;;;;;;;;;;;;;;;;5031973;28;20013;-68
2023/10/03 12:54:17;;;;;;;;;;;;;;;;;;5031644;28;19925;-66
2023/10/03 12:56:43;;;;;;;;;;;;;;;;;;5032183;28;19929;-68
2023/10/03 12:59:09;;;;;;;;;;;;;;;;;;5032224;28;19925;-68
2023/10/03 13:01:35;;;;;;;;;;;;;;;;;;5032692;28;20345;-68
2023/10/03 13:04:01;;;;;;;;;;;;;;;;;;5014552;28;20382;-67
2023/10/03 13:06:27;;;;;;;;;;;;;;;;;;5032474;28;20359;-68
2023/10/03 13:08:54;;;;;;;;;;;;;;;;;;5032583;28;19928;-67
2023/10/03 13:11:20;;;;;;;;;;;;;;;;;;5031110;28;19925;-68
2023/10/03 13:13:47;;;;;;;;;;;;;;;;;;5032703;28;20008;-67
2023/10/03 13:16:14;;;;;;;;;;;;;;;;;;5032438;28;19928;-68
2023/10/03 13:18:40;;;;;;;;;;;;;;;;;;5032481;28;19921;-68
2023/10/03 13:21:06;;;;;;;;;;;;;;;;;;5031274;28;19971;-68
2023/10/03 13:23:32;;;;;;;;;;;;;;;;;;5030898;28;20655;-68
2023/10/03 13:25:58;;;;;;;;;;;;;;;;;;5032518;28;20032;-67
2023/10/03 13:28:25;;;;;;;;;;;;;;;;;;5030913;28;20012;-67
2023/10/03 13:30:51;;;;;;;;;;;;;;;;;;5032296;28;19925;-67
2023/10/03 13:33:18;;;;;;;;;;;;;;;;;;5032320;28;19927;-68
2023/10/03 13:35:47;;;;;;;;;;;;;;;;;;5014281;28;19925;-68
2023/10/03 13:38:13;;;;;;;;;;;;;;;;;;5032386;28;19921;-68
2023/10/03 13:40:39;;;;;;;;;;;;;;;;;;5032131;28;19949;-67
2023/10/03 13:43:05;;;;;;;;;;;;;;;;;;5030693;28;20378;-68
2023/10/03 13:45:32;;;;;;;;;;;;;;;;;;5032034;28;20012;-67
2023/10/03 13:47:59;;;;;;;;;;;;;;;;;;5032604;28;19921;-67
2023/10/03 13:50:25;;;;;;;;;;;;;;;;;;5031989;28;20023;-68
2023/10/03 13:52:53;;;;;;;;;;;;;;;;;;5031903;28;20052;-67
2023/10/03 13:55:23;;;;;;;;;;;;;;;;;;5031717;28;19965;-67
2023/10/03 13:57:50;;;;;;;;;;;;;;;;;;5032049;28;19921;-68
2023/10/03 14:00:16;;;;;;;;;;;;;;;;;;5031922;28;19925;-67
2023/10/03 14:02:45;;;;;;;;;;;;;;;;;;5031995;28;19921;-68
2023/10/03 14:05:11;;;;;;;;;;;;;;;;;;5031549;28;20183;-68
2023/10/03 14:07:37;;;;;;;;;;;;;;;;;;5030658;28;19921;-67
2023/10/03 14:10:06;;;;;;;;;;;;;;;;;;5032057;28;20363;-68
2023/10/03 14:12:31;;;;;;;;;;;;;;;;;;5014249;28;19936;-68
2023/10/03 14:14:57;;;;;;;;;;;;;;;;;;5030515;28;19921;-67
2023/10/03 14:17:24;;;;;;;;;;;;;;;;;;5031686;28;19921;-66
2023/10/03 14:19:50;;;;;;;;;;;;;;;;;;5029726;28;19925;-67
2023/10/03 14:22:18;;;;;;;;;;;;;;;;;;5029271;28;20298;-67
2023/10/03 14:24:44;;;;;;;;;;;;;;;;;;5030819;28;20379;-67
2023/10/03 14:27:10;;;;;;;;;;;;;;;;;;5031182;28;20306;-68
2023/10/03 14:29:36;;;;;;;;;;;;;;;;;;5029570;28;19921;-68
2023/10/03 14:32:02;;;;;;;;;;;;;;;;;;5031107;28;19925;-68
2023/10/03 14:34:28;;;;;;;;;;;;;;;;;;5031526;28;19921;-67
2023/10/03 14:36:54;;;;;;;;;;;;;;;;;;5031696;28;19948;-68
2023/10/03 14:39:24;;;;;;;;;;;;;;;;;;5030127;28;19940;-68
2023/10/03 14:41:50;;;;;;;;;;;;;;;;;;5031437;28;20268;-67
2023/10/03 14:44:16;;;;;;;;;;;;;;;;;;5031157;28;19995;-68
2023/10/03 14:46:42;;;;;;;;;;;;;;;;;;5034952;28;19943;-68
2023/10/03 14:49:08;;;;;;;;;;;;;;;;;;5034968;28;20110;-67
2023/10/03 14:51:35;;;;;;;;;;;;;;;;;;5034551;28;19971;-67
2023/10/03 14:54:02;;;;;;;;;;;;;;;;;;5034290;28;19933;-67
2023/10/03 14:56:28;;;;;;;;;;;;;;;;;;5033481;28;19955;-67
2023/10/03 14:58:54;;;;;;;;;;;;;;;;;;5033295;28;19925;-67
2023/10/03 15:01:19;;;;;;;;;;;;;;;;;;5034778;28;19921;-67
2023/10/03 15:03:45;;;;;;;;;;;;;;;;;;5035139;28;19921;-67
2023/10/03 15:06:11;;;;;;;;;;;;;;;;;;5032938;28;19928;-68
2023/10/03 15:08:37;;;;;;;;;;;;;;;;;;5033305;28;20024;-68
2023/10/03 15:11:03;;;;;;;;;;;;;;;;;;5033735;28;20416;-66
2023/10/03 15:13:29;;;;;;;;;;;;;;;;;;5035208;28;19971;-67
2023/10/03 15:15:56;;;;;;;;;;;;;;;;;;5034749;28;19929;-67
2023/10/03 15:18:22;;;;;;;;;;;;;;;;;;5034889;28;20243;-67
2023/10/03 15:20:47;;;;;;;;;;;;;;;;;;5034950;28;19928;-67
2023/10/03 15:23:13;;;;;;;;;;;;;;;;;;5034378;28;19925;-69
2023/10/03 15:25:41;;;;;;;;;;;;;;;;;;5032728;28;19947;-68
2023/10/03 15:28:07;;;;;;;;;;;;;;;;;;5034110;28;19921;-67
2023/10/03 15:30:33;;;;;;;;;;;;;;;;;;5033799;28;20379;-67
2023/10/03 15:32:59;;;;;;;;;;;;;;;;;;5033956;28;19968;-68
2023/10/03 15:35:25;;;;;;;;;;;;;;;;;;5034010;28;19948;-68
2023/10/03 15:37:51;;;;;;;;;;;;;;;;;;5033764;28;19928;-67
2023/10/03 15:40:19;;;;;;;;;;;;;;;;;;5034039;28;19928;-68
2023/10/03 15:42:45;;;;;;;;;;;;;;;;;;5033619;28;20385;-67
2023/10/03 15:45:11;;;;;;;;;;;;;;;;;;5033869;28;20016;-69
2023/10/03 15:47:37;;;;;;;;;;;;;;;;;;5033560;28;20279;-65
2023/10/03 15:50:03;;;;;;;;;;;;;;;;;;5033517;28;20273;-64
2023/10/03 15:52:29;;;;;;;;;;;;;;;;;;5032945;28;19975;-64
2023/10/03 15:54:55;;;;;;;;;;;;;;;;;;5031581;28;19952;-64
2023/10/03 15:57:21;;;;;;;;;;;;;;;;;;5015345;28;19937;-63
2023/10/03 15:59:47;;;;;;;;;;;;;;;;;;5033672;28;19925;-63
2023/10/03 16:02:13;;;;;;;;;;;;;;;;;;5033719;28;19921;-64
2023/10/03 16:04:39;;;;;;;;;;;;;;;;;;5032239;28;19961;-64
2023/10/03 16:07:05;;;;;;;;;;;;;;;;;;5033540;28;19956;-64
2023/10/03 16:09:31;;;;;;;;;;;;;;;;;;5033340;28;19924;-64
2023/10/03 16:11:58;;;;;;;;;;;;;;;;;;5033253;28;19925;-63
2023/10/03 16:14:24;;;;;;;;;;;;;;;;;;5033573;28;20003;-64
2023/10/03 16:16:52;;;;;;;;;;;;;;;;;;5032612;28;20020;-65
2023/10/03 16:19:19;;;;;;;;;;;;;;;;;;5032572;28;19924;-64
2023/10/03 16:21:44;;;;;;;;;;;;;;;;;;5033104;28;19925;-64
2023/10/03 16:24:10;;;;;;;;;;;;;;;;;;5032553;28;19925;-64
2023/10/03 16:26:36;;;;;;;;;;;;;;;;;;5032560;28;19944;-63
2023/10/03 16:29:02;;;;;;;;;;;;;;;;;;5031962;28;19921;-64
2023/10/03 16:31:29;;;;;;;;;;;;;;;;;;5033211;28;19925;-64
2023/10/03 16:33:56;;;;;;;;;;;;;;;;;;5031674;28;19928;-63
2023/10/03 16:36:23;;;;;;;;;;;;;;;;;;5032938;28;19928;-64
2023/10/03 16:38:48;;;;;;;;;;;;;;;;;;5033086;28;19925;-64
2023/10/03 16:41:17;;;;;;;;;;;;;;;;;;5015143;28;19921;-65
2023/10/03 16:43:43;;;;;;;;;;;;;;;;;;5031433;28;19921;-64
2023/10/03 16:46:09;;;;;;;;;;;;;;;;;;5032901;28;20428;-64